sensor_id;sensor_type;location;lat;lon;timestamp;pressure;altitude;pressure_sealevel;temperature;humidity
34482;BME280;20720;48.886;9.388;2023-03-24T00:00:11;97581.78;;;16.10;100.00
34482;BME280;20720;48.886;9.388;2023-03-24T00:02:38;97578.94;;;16.16;100.00
34482;BME280;20720;48.886;9.388;2023-03-24T00:05:05;97569.63;;;16.14;100.00
34482;BME280;20720;48.886;9.388;2023-03-24T00:07:30;97538.28;;;15.04;100.00
34482;BME280;20720;48.886;9.388;2023-03-24T00:09:57;97533.44;;;15.18;100.00
34482;BME280;20720;48.886;9.388;2023-03-24T00:12:23;97520.38;;;15.33;100.00
34482;BME280;20720;48.886;9.388;2023-03-24T00:14:49;97507.72;;;15.93;100.00
34482;BME280;20720;48.886;9.388;2023-03-24T00:17:14;97495.91;;;16.11;100.00
34482;BME280;20720;48.886;9.388;2023-03-24T00:19:41;97491.13;;;15.44;100.00
34482;BME280;20720;48.886;9.388;2023-03-24T00:22:09;97504.97;;;15.51;100.00
34482;BME280;20720;48.886;9.388;2023-03-24T00:24:38;97508.41;;;16.15;100.00
34482;BME280;20720;48.886;9.388;2023-03-24T00:27:04;97521.56;;;16.37;100.00
34482;BME280;20720;48.886;9.388;2023-03-24T00:29:30;97518.81;;;16.27;100.00
34482;BME280;20720;48.886;9.388;2023-03-24T00:31:55;97520.69;;;16.63;100.00
34482;BME280;20720;48.886;9.388;2023-03-24T00:34:20;97511.34;;;16.55;100.00
34482;BME280;20720;48.886;9.388;2023-03-24T00:36:49;97521.28;;;16.80;100.00
34482;BME280;20720;48.886;9.388;2023-03-24T00:39:15;97497.22;;;17.02;100.00
34482;BME280;20720;48.886;9.388;2023-03-24T00:41:44;97492.75;;;17.12;100.00
34482;BME280;20720;48.886;9.388;2023-03-24T00:44:10;97488.28;;;17.23;100.00
34482;BME280;20720;48.886;9.388;2023-03-24T00:46:45;97486.50;;;17.48;100.00
34482;BME280;20720;48.886;9.388;2023-03-24T00:49:19;97479.09;;;17.70;100.00
34482;BME280;20720;48.886;9.388;2023-03-24T00:51:49;97477.41;;;17.29;100.00
34482;BME280;20720;48.886;9.388;2023-03-24T00:54:15;97479.25;;;17.29;100.00
34482;BME280;20720;48.886;9.388;2023-03-24T00:56:45;97467.03;;;17.18;100.00
34482;BME280;20720;48.886;9.388;2023-03-24T00:59:13;97467.25;;;17.11;100.00
34482;BME280;20720;48.886;9.388;2023-03-24T01:01:39;97471.59;;;17.37;96.36
34482;BME280;20720;48.886;9.388;2023-03-24T01:04:05;97467.66;;;17.60;92.30
34482;BME280;20720;48.886;9.388;2023-03-24T01:06:31;97460.72;;;17.49;91.46
34482;BME280;20720;48.886;9.388;2023-03-24T01:08:56;97461.03;;;17.82;91.64
34482;BME280;20720;48.886;9.388;2023-03-24T01:11:22;97462.88;;;17.97;90.91
34482;BME280;20720;48.886;9.388;2023-03-24T01:13:48;97454.03;;;17.41;94.07
34482;BME280;20720;48.886;9.388;2023-03-24T01:16:13;97458.84;;;17.44;93.66
34482;BME280;20720;48.886;9.388;2023-03-24T01:18:39;97445.59;;;18.00;90.37
34482;BME280;20720;48.886;9.388;2023-03-24T01:21:05;97444.22;;;18.22;88.36
34482;BME280;20720;48.886;9.388;2023-03-24T01:23:30;97435.19;;;18.23;89.56
34482;BME280;20720;48.886;9.388;2023-03-24T01:25:55;97434.88;;;18.40;86.96
34482;BME280;20720;48.886;9.388;2023-03-24T01:28:22;97429.34;;;18.21;88.26
34482;BME280;20720;48.886;9.388;2023-03-24T01:30:49;97424.81;;;18.22;88.10
34482;BME280;20720;48.886;9.388;2023-03-24T01:33:14;97419.78;;;18.10;88.45
34482;BME280;20720;48.886;9.388;2023-03-24T01:35:40;97405.69;;;18.10;88.51
34482;BME280;20720;48.886;9.388;2023-03-24T01:38:06;97404.16;;;17.78;92.98
34482;BME280;20720;48.886;9.388;2023-03-24T01:40:32;97398.28;;;17.71;90.49
34482;BME280;20720;48.886;9.388;2023-03-24T01:42:59;97401.72;;;18.02;88.81
34482;BME280;20720;48.886;9.388;2023-03-24T01:47:58;97399.09;;;17.87;88.39
34482;BME280;20720;48.886;9.388;2023-03-24T01:50:24;97394.59;;;17.82;89.94
34482;BME280;20720;48.886;9.388;2023-03-24T01:52:50;97394.59;;;17.82;92.28
34482;BME280;20720;48.886;9.388;2023-03-24T01:55:16;97394.28;;;18.04;95.18
34482;BME280;20720;48.886;9.388;2023-03-24T01:57:44;97384.06;;;16.55;100.00
34482;BME280;20720;48.886;9.388;2023-03-24T02:00:12;97392.69;;;17.23;100.00
34482;BME280;20720;48.886;9.388;2023-03-24T02:02:42;97394.19;;;16.73;100.00
34482;BME280;20720;48.886;9.388;2023-03-24T02:05:10;97385.53;;;17.28;100.00
34482;BME280;20720;48.886;9.388;2023-03-24T02:10:02;97383.44;;;17.70;98.44
34482;BME280;20720;48.886;9.388;2023-03-24T02:12:29;97385.78;;;17.32;100.00
34482;BME280;20720;48.886;9.388;2023-03-24T02:14:56;97379.16;;;17.34;100.00
34482;BME280;20720;48.886;9.388;2023-03-24T02:17:46;97377.53;;;17.08;100.00
34482;BME280;20720;48.886;9.388;2023-03-24T02:20:09;97385.72;;;16.81;100.00
34482;BME280;20720;48.886;9.388;2023-03-24T02:23:02;97381.94;;;16.57;100.00
34482;BME280;20720;48.886;9.388;2023-03-24T02:30:52;97368.03;;;15.83;100.00
34482;BME280;20720;48.886;9.388;2023-03-24T02:41:26;97365.25;;;16.67;100.00
34482;BME280;20720;48.886;9.388;2023-03-24T02:44:08;97365.34;;;17.32;94.65
34482;BME280;20720;48.886;9.388;2023-03-24T02:46:50;97364.81;;;17.45;89.38
34482;BME280;20720;48.886;9.388;2023-03-24T02:51:51;97360.56;;;17.79;87.01
34482;BME280;20720;48.886;9.388;2023-03-24T02:54:21;97367.75;;;17.64;86.64
34482;BME280;20720;48.886;9.388;2023-03-24T02:59:20;97353.94;;;17.62;86.44
34482;BME280;20720;48.886;9.388;2023-03-24T03:01:50;97365.91;;;17.49;85.95
34482;BME280;20720;48.886;9.388;2023-03-24T03:04:25;97354.75;;;17.67;85.52
34482;BME280;20720;48.886;9.388;2023-03-24T03:06:53;97349.94;;;17.79;83.39
34482;BME280;20720;48.886;9.388;2023-03-24T03:09:20;97354.19;;;17.80;81.94
34482;BME280;20720;48.886;9.388;2023-03-24T03:11:47;97351.47;;;18.06;80.90
34482;BME280;20720;48.886;9.388;2023-03-24T03:14:16;97341.66;;;17.96;80.37
34482;BME280;20720;48.886;9.388;2023-03-24T03:22:11;97347.44;;;18.18;79.78
34482;BME280;20720;48.886;9.388;2023-03-24T03:24:39;97341.31;;;18.23;80.33
34482;BME280;20720;48.886;9.388;2023-03-24T03:27:07;97342.53;;;18.55;79.05
34482;BME280;20720;48.886;9.388;2023-03-24T03:29:39;97341.25;;;18.38;79.76
34482;BME280;20720;48.886;9.388;2023-03-24T03:32:06;97346.16;;;18.01;82.07
34482;BME280;20720;48.886;9.388;2023-03-24T03:34:41;97337.34;;;18.15;81.14
34482;BME280;20720;48.886;9.388;2023-03-24T03:40:15;97332.44;;;18.52;79.61
34482;BME280;20720;48.886;9.388;2023-03-24T03:42:38;97324.25;;;18.34;79.64
34482;BME280;20720;48.886;9.388;2023-03-24T03:45:05;97325.94;;;18.05;80.50
34482;BME280;20720;48.886;9.388;2023-03-24T03:47:31;97330.06;;;18.36;79.92
34482;BME280;20720;48.886;9.388;2023-03-24T03:49:56;97335.94;;;18.33;80.20
34482;BME280;20720;48.886;9.388;2023-03-24T03:52:21;97341.34;;;18.08;80.78
34482;BME280;20720;48.886;9.388;2023-03-24T03:54:46;97345.03;;;18.22;80.67
34482;BME280;20720;48.886;9.388;2023-03-24T03:57:12;97334.44;;;18.12;80.93
34482;BME280;20720;48.886;9.388;2023-03-24T03:59:38;97333.72;;;17.86;81.50
34482;BME280;20720;48.886;9.388;2023-03-24T04:04:56;97327.03;;;17.99;81.14
34482;BME280;20720;48.886;9.388;2023-03-24T04:07:36;97319.47;;;18.31;79.89
34482;BME280;20720;48.886;9.388;2023-03-24T04:10:12;97324.41;;;17.83;79.98
34482;BME280;20720;48.886;9.388;2023-03-24T04:15:32;97336.03;;;18.13;79.63
34482;BME280;20720;48.886;9.388;2023-03-24T04:20:26;97349.53;;;18.26;79.96
34482;BME280;20720;48.886;9.388;2023-03-24T04:25:29;97343.53;;;17.91;80.70
34482;BME280;20720;48.886;9.388;2023-03-24T04:28:01;97337.09;;;18.17;79.71
34482;BME280;20720;48.886;9.388;2023-03-24T04:30:43;97329.72;;;17.94;79.99
34482;BME280;20720;48.886;9.388;2023-03-24T04:33:13;97338.47;;;17.89;80.57
34482;BME280;20720;48.886;9.388;2023-03-24T04:35:45;97341.09;;;18.04;79.71
34482;BME280;20720;48.886;9.388;2023-03-24T04:38:13;97337.47;;;17.75;81.07
34482;BME280;20720;48.886;9.388;2023-03-24T04:40:41;97333.47;;;17.72;82.24
34482;BME280;20720;48.886;9.388;2023-03-24T04:43:10;97330.13;;;18.21;79.93
34482;BME280;20720;48.886;9.388;2023-03-24T04:45:37;97317.44;;;18.13;79.25
34482;BME280;20720;48.886;9.388;2023-03-24T04:48:04;97320.13;;;17.93;80.61
34482;BME280;20720;48.886;9.388;2023-03-24T04:50:31;97316.59;;;18.17;79.14
34482;BME280;20720;48.886;9.388;2023-03-24T04:52:58;97314.47;;;18.24;78.60
34482;BME280;20720;48.886;9.388;2023-03-24T04:58:01;97322.84;;;17.72;80.69
34482;BME280;20720;48.886;9.388;2023-03-24T05:00:27;97328.09;;;18.03;79.57
34482;BME280;20720;48.886;9.388;2023-03-24T05:02:52;97330.97;;;18.11;78.65
34482;BME280;20720;48.886;9.388;2023-03-24T05:05:17;97339.78;;;18.07;79.32
34482;BME280;20720;48.886;9.388;2023-03-24T05:07:43;97343.00;;;17.88;79.70
34482;BME280;20720;48.886;9.388;2023-03-24T05:10:08;97346.63;;;18.23;79.40
34482;BME280;20720;48.886;9.388;2023-03-24T05:12:34;97354.13;;;18.06;80.91
34482;BME280;20720;48.886;9.388;2023-03-24T05:14:59;97373.81;;;17.95;81.64
34482;BME280;20720;48.886;9.388;2023-03-24T05:17:25;97369.06;;;17.81;82.80
34482;BME280;20720;48.886;9.388;2023-03-24T05:19:50;97376.16;;;18.16;81.77
34482;BME280;20720;48.886;9.388;2023-03-24T05:22:15;97382.88;;;17.94;83.17
34482;BME280;20720;48.886;9.388;2023-03-24T05:24:41;97401.22;;;17.90;84.19
34482;BME280;20720;48.886;9.388;2023-03-24T05:27:06;97406.81;;;17.63;86.18
34482;BME280;20720;48.886;9.388;2023-03-24T05:29:32;97415.81;;;17.93;85.77
34482;BME280;20720;48.886;9.388;2023-03-24T05:31:57;97422.22;;;18.02;88.37
34482;BME280;20720;48.886;9.388;2023-03-24T05:34:22;97435.00;;;17.69;94.08
34482;BME280;20720;48.886;9.388;2023-03-24T05:36:47;97446.66;;;17.73;96.89
34482;BME280;20720;48.886;9.388;2023-03-24T05:39:12;97488.72;;;17.00;100.00
34482;BME280;20720;48.886;9.388;2023-03-24T05:41:38;97487.91;;;16.94;100.00
34482;BME280;20720;48.886;9.388;2023-03-24T05:44:03;97493.59;;;16.56;100.00
34482;BME280;20720;48.886;9.388;2023-03-24T05:46:28;97491.31;;;16.38;100.00
34482;BME280;20720;48.886;9.388;2023-03-24T05:48:53;97488.31;;;16.66;100.00
34482;BME280;20720;48.886;9.388;2023-03-24T05:51:18;97487.84;;;16.79;100.00
34482;BME280;20720;48.886;9.388;2023-03-24T05:53:44;97487.75;;;16.59;100.00
34482;BME280;20720;48.886;9.388;2023-03-24T05:56:09;97499.41;;;16.53;100.00
34482;BME280;20720;48.886;9.388;2023-03-24T05:58:37;97499.59;;;16.46;100.00
34482;BME280;20720;48.886;9.388;2023-03-24T06:01:09;97490.03;;;16.40;100.00
34482;BME280;20720;48.886;9.388;2023-03-24T06:03:35;97500.09;;;16.38;100.00
34482;BME280;20720;48.886;9.388;2023-03-24T06:06:03;97502.41;;;16.30;100.00
34482;BME280;20720;48.886;9.388;2023-03-24T06:08:30;97506.19;;;15.70;100.00
34482;BME280;20720;48.886;9.388;2023-03-24T06:10:58;97496.19;;;16.51;100.00
34482;BME280;20720;48.886;9.388;2023-03-24T06:13:24;97500.41;;;16.99;100.00
34482;BME280;20720;48.886;9.388;2023-03-24T06:15:49;97500.38;;;16.42;100.00
34482;BME280;20720;48.886;9.388;2023-03-24T06:18:18;97497.97;;;16.92;100.00
34482;BME280;20720;48.886;9.388;2023-03-24T06:20:45;97497.34;;;16.65;100.00
34482;BME280;20720;48.886;9.388;2023-03-24T06:23:14;97503.34;;;17.07;100.00
34482;BME280;20720;48.886;9.388;2023-03-24T06:25:40;97499.94;;;17.17;100.00
34482;BME280;20720;48.886;9.388;2023-03-24T06:28:09;97495.69;;;17.21;100.00
34482;BME280;20720;48.886;9.388;2023-03-24T06:30:34;97485.00;;;16.44;100.00
34482;BME280;20720;48.886;9.388;2023-03-24T06:33:01;97488.13;;;16.36;100.00
34482;BME280;20720;48.886;9.388;2023-03-24T06:35:26;97484.75;;;16.97;100.00
34482;BME280;20720;48.886;9.388;2023-03-24T06:37:51;97478.91;;;17.00;100.00
34482;BME280;20720;48.886;9.388;2023-03-24T06:40:16;97485.56;;;17.08;100.00
34482;BME280;20720;48.886;9.388;2023-03-24T06:42:41;97486.38;;;17.13;100.00
34482;BME280;20720;48.886;9.388;2023-03-24T06:45:07;97484.69;;;16.82;100.00
34482;BME280;20720;48.886;9.388;2023-03-24T06:47:33;97474.28;;;16.70;100.00
34482;BME280;20720;48.886;9.388;2023-03-24T06:49:58;97474.59;;;16.79;100.00
34482;BME280;20720;48.886;9.388;2023-03-24T06:52:23;97481.19;;;16.71;100.00
34482;BME280;20720;48.886;9.388;2023-03-24T06:54:49;97479.88;;;16.79;100.00
34482;BME280;20720;48.886;9.388;2023-03-24T06:57:14;97479.13;;;16.78;100.00
34482;BME280;20720;48.886;9.388;2023-03-24T06:59:40;97485.72;;;16.71;100.00
34482;BME280;20720;48.886;9.388;2023-03-24T07:02:05;97489.78;;;16.47;100.00
34482;BME280;20720;48.886;9.388;2023-03-24T07:04:31;97487.50;;;16.65;100.00
34482;BME280;20720;48.886;9.388;2023-03-24T07:07:00;97492.06;;;16.75;100.00
34482;BME280;20720;48.886;9.388;2023-03-24T07:09:25;97493.59;;;16.56;100.00
34482;BME280;20720;48.886;9.388;2023-03-24T07:11:51;97497.06;;;16.25;100.00
34482;BME280;20720;48.886;9.388;2023-03-24T07:14:16;97492.69;;;16.45;100.00
34482;BME280;20720;48.886;9.388;2023-03-24T07:16:41;97491.56;;;16.31;100.00
34482;BME280;20720;48.886;9.388;2023-03-24T07:19:06;97493.72;;;16.39;100.00
34482;BME280;20720;48.886;9.388;2023-03-24T07:21:31;97487.16;;;15.47;100.00
34482;BME280;20720;48.886;9.388;2023-03-24T07:23:57;97481.50;;;15.38;100.00
34482;BME280;20720;48.886;9.388;2023-03-24T07:26:22;97482.69;;;15.79;100.00
34482;BME280;20720;48.886;9.388;2023-03-24T07:28:47;97489.94;;;15.35;100.00
34482;BME280;20720;48.886;9.388;2023-03-24T07:31:13;97482.09;;;15.19;100.00
34482;BME280;20720;48.886;9.388;2023-03-24T07:33:38;97478.28;;;15.09;100.00
34482;BME280;20720;48.886;9.388;2023-03-24T07:36:04;97463.28;;;15.15;100.00
34482;BME280;20720;48.886;9.388;2023-03-24T07:38:29;97474.88;;;15.14;100.00
34482;BME280;20720;48.886;9.388;2023-03-24T07:40:56;97474.78;;;15.04;100.00
34482;BME280;20720;48.886;9.388;2023-03-24T07:43:21;97481.13;;;15.03;100.00
34482;BME280;20720;48.886;9.388;2023-03-24T07:45:47;97478.44;;;14.98;100.00
34482;BME280;20720;48.886;9.388;2023-03-24T07:48:12;97483.75;;;15.03;100.00
34482;BME280;20720;48.886;9.388;2023-03-24T07:50:37;97484.22;;;14.95;100.00
34482;BME280;20720;48.886;9.388;2023-03-24T07:53:02;97488.88;;;14.88;100.00
34482;BME280;20720;48.886;9.388;2023-03-24T07:55:27;97494.84;;;15.00;100.00
34482;BME280;20720;48.886;9.388;2023-03-24T07:57:53;97485.88;;;14.58;100.00
34482;BME280;20720;48.886;9.388;2023-03-24T08:00:18;97498.44;;;14.89;100.00
34482;BME280;20720;48.886;9.388;2023-03-24T08:02:44;97485.63;;;14.81;100.00
34482;BME280;20720;48.886;9.388;2023-03-24T08:05:10;97490.66;;;15.04;100.00
34482;BME280;20720;48.886;9.388;2023-03-24T08:07:38;97483.28;;;15.06;100.00
34482;BME280;20720;48.886;9.388;2023-03-24T08:10:03;97492.59;;;14.87;100.00
34482;BME280;20720;48.886;9.388;2023-03-24T08:12:28;97490.13;;;14.80;100.00
34482;BME280;20720;48.886;9.388;2023-03-24T08:14:54;97487.84;;;14.89;100.00
34482;BME280;20720;48.886;9.388;2023-03-24T08:17:19;97486.06;;;14.73;100.00
34482;BME280;20720;48.886;9.388;2023-03-24T08:19:45;97488.44;;;14.96;100.00
34482;BME280;20720;48.886;9.388;2023-03-24T08:22:11;97498.53;;;14.99;100.00
34482;BME280;20720;48.886;9.388;2023-03-24T08:24:37;97498.09;;;15.07;100.00
34482;BME280;20720;48.886;9.388;2023-03-24T08:27:02;97498.19;;;15.12;100.00
34482;BME280;20720;48.886;9.388;2023-03-24T08:29:30;97497.53;;;15.05;100.00
34482;BME280;20720;48.886;9.388;2023-03-24T08:31:55;97485.38;;;15.04;100.00
34482;BME280;20720;48.886;9.388;2023-03-24T08:34:20;97474.88;;;14.87;100.00
34482;BME280;20720;48.886;9.388;2023-03-24T08:36:46;97447.03;;;15.06;100.00
34482;BME280;20720;48.886;9.388;2023-03-24T08:39:12;97439.38;;;14.62;100.00
34482;BME280;20720;48.886;9.388;2023-03-24T08:41:37;97439.47;;;15.15;100.00
34482;BME280;20720;48.886;9.388;2023-03-24T08:44:03;97418.69;;;15.29;100.00
34482;BME280;20720;48.886;9.388;2023-03-24T08:46:29;97370.66;;;15.15;100.00
34482;BME280;20720;48.886;9.388;2023-03-24T08:48:54;97354.94;;;15.35;100.00
34482;BME280;20720;48.886;9.388;2023-03-24T08:51:21;97389.44;;;14.87;100.00
34482;BME280;20720;48.886;9.388;2023-03-24T08:53:46;97414.53;;;15.11;100.00
34482;BME280;20720;48.886;9.388;2023-03-24T08:56:11;97426.06;;;15.00;100.00
34482;BME280;20720;48.886;9.388;2023-03-24T08:58:37;97442.75;;;15.27;100.00
34482;BME280;20720;48.886;9.388;2023-03-24T09:01:02;97446.84;;;15.13;100.00
34482;BME280;20720;48.886;9.388;2023-03-24T09:03:27;97450.06;;;15.42;100.00
34482;BME280;20720;48.886;9.388;2023-03-24T09:05:56;97451.94;;;15.46;100.00
34482;BME280;20720;48.886;9.388;2023-03-24T09:08:21;97459.94;;;15.25;100.00
34482;BME280;20720;48.886;9.388;2023-03-24T09:10:46;97473.50;;;15.60;100.00
34482;BME280;20720;48.886;9.388;2023-03-24T09:13:12;97470.22;;;16.11;100.00
34482;BME280;20720;48.886;9.388;2023-03-24T09:15:37;97461.72;;;15.72;100.00
34482;BME280;20720;48.886;9.388;2023-03-24T09:18:02;97461.50;;;15.47;100.00
34482;BME280;20720;48.886;9.388;2023-03-24T09:20:28;97451.59;;;15.64;100.00
34482;BME280;20720;48.886;9.388;2023-03-24T09:22:53;97455.38;;;15.73;100.00
34482;BME280;20720;48.886;9.388;2023-03-24T09:25:20;97457.72;;;15.70;100.00
34482;BME280;20720;48.886;9.388;2023-03-24T09:27:45;97457.47;;;15.71;100.00
34482;BME280;20720;48.886;9.388;2023-03-24T09:30:15;97459.91;;;15.78;100.00
34482;BME280;20720;48.886;9.388;2023-03-24T09:32:40;97456.25;;;15.84;100.00
34482;BME280;20720;48.886;9.388;2023-03-24T09:35:06;97457.00;;;15.79;100.00
34482;BME280;20720;48.886;9.388;2023-03-24T09:37:32;97462.53;;;15.46;100.00
34482;BME280;20720;48.886;9.388;2023-03-24T09:39:58;97458.44;;;15.60;100.00
34482;BME280;20720;48.886;9.388;2023-03-24T09:42:25;97456.47;;;15.82;100.00
34482;BME280;20720;48.886;9.388;2023-03-24T09:44:56;97459.78;;;15.63;100.00
34482;BME280;20720;48.886;9.388;2023-03-24T09:49:49;97436.34;;;16.65;100.00
34482;BME280;20720;48.886;9.388;2023-03-24T09:52:18;97441.91;;;16.68;100.00
34482;BME280;20720;48.886;9.388;2023-03-24T09:54:52;97444.78;;;16.52;100.00
34482;BME280;20720;48.886;9.388;2023-03-24T09:57:22;97458.09;;;16.67;100.00
34482;BME280;20720;48.886;9.388;2023-03-24T09:59:49;97473.75;;;16.68;100.00
34482;BME280;20720;48.886;9.388;2023-03-24T10:02:15;97456.19;;;16.16;100.00
34482;BME280;20720;48.886;9.388;2023-03-24T10:04:42;97465.63;;;16.95;100.00
34482;BME280;20720;48.886;9.388;2023-03-24T10:07:09;97471.84;;;17.31;100.00
34482;BME280;20720;48.886;9.388;2023-03-24T10:09:37;97488.88;;;17.45;100.00
34482;BME280;20720;48.886;9.388;2023-03-24T10:17:11;97475.03;;;18.38;100.00
34482;BME280;20720;48.886;9.388;2023-03-24T10:19:53;97480.06;;;18.55;100.00
34482;BME280;20720;48.886;9.388;2023-03-24T10:22:24;97478.50;;;18.44;100.00
34482;BME280;20720;48.886;9.388;2023-03-24T10:27:28;97486.59;;;18.98;100.00
34482;BME280;20720;48.886;9.388;2023-03-24T10:30:00;97485.19;;;17.91;100.00
34482;BME280;20720;48.886;9.388;2023-03-24T10:32:28;97476.41;;;18.06;100.00
34482;BME280;20720;48.886;9.388;2023-03-24T10:34:57;97481.47;;;17.87;100.00
34482;BME280;20720;48.886;9.388;2023-03-24T10:37:24;97474.03;;;17.84;100.00
34482;BME280;20720;48.886;9.388;2023-03-24T10:39:51;97488.34;;;17.43;100.00
34482;BME280;20720;48.886;9.388;2023-03-24T10:42:17;97492.88;;;17.62;100.00
34482;BME280;20720;48.886;9.388;2023-03-24T10:44:44;97483.03;;;17.48;100.00
34482;BME280;20720;48.886;9.388;2023-03-24T10:47:10;97480.34;;;17.33;100.00
34482;BME280;20720;48.886;9.388;2023-03-24T10:49:37;97487.56;;;17.62;100.00
34482;BME280;20720;48.886;9.388;2023-03-24T10:52:16;97482.53;;;18.16;100.00
34482;BME280;20720;48.886;9.388;2023-03-24T10:54:44;97478.53;;;17.73;100.00
34482;BME280;20720;48.886;9.388;2023-03-24T10:57:16;97483.34;;;17.76;100.00
34482;BME280;20720;48.886;9.388;2023-03-24T10:59:51;97495.56;;;17.88;100.00
34482;BME280;20720;48.886;9.388;2023-03-24T11:02:22;97496.09;;;17.90;100.00
34482;BME280;20720;48.886;9.388;2023-03-24T11:04:50;97496.63;;;17.86;100.00
34482;BME280;20720;48.886;9.388;2023-03-24T11:07:18;97520.00;;;17.95;100.00
34482;BME280;20720;48.886;9.388;2023-03-24T11:12:21;97516.56;;;17.84;100.00
34482;BME280;20720;48.886;9.388;2023-03-24T11:14:46;97523.72;;;17.88;100.00
34482;BME280;20720;48.886;9.388;2023-03-24T11:17:12;97521.06;;;18.04;100.00
34482;BME280;20720;48.886;9.388;2023-03-24T11:19:54;97518.38;;;18.59;100.00
34482;BME280;20720;48.886;9.388;2023-03-24T11:22:20;97516.28;;;18.26;100.00
34482;BME280;20720;48.886;9.388;2023-03-24T11:24:49;97521.34;;;18.37;100.00
34482;BME280;20720;48.886;9.388;2023-03-24T11:27:18;97523.69;;;18.59;100.00
34482;BME280;20720;48.886;9.388;2023-03-24T11:29:44;97514.34;;;18.76;100.00
34482;BME280;20720;48.886;9.388;2023-03-24T11:32:15;97528.78;;;18.35;100.00
34482;BME280;20720;48.886;9.388;2023-03-24T11:34:45;97531.72;;;18.44;100.00
34482;BME280;20720;48.886;9.388;2023-03-24T11:37:11;97532.38;;;18.95;100.00
34482;BME280;20720;48.886;9.388;2023-03-24T11:39:37;97525.69;;;19.07;100.00
34482;BME280;20720;48.886;9.388;2023-03-24T11:52:46;97536.28;;;19.17;100.00
34482;BME280;20720;48.886;9.388;2023-03-24T11:55:14;97537.56;;;18.21;100.00
34482;BME280;20720;48.886;9.388;2023-03-24T11:57:45;97527.19;;;18.04;100.00
34482;BME280;20720;48.886;9.388;2023-03-24T12:00:19;97520.53;;;18.37;100.00
34482;BME280;20720;48.886;9.388;2023-03-24T12:05:22;97517.09;;;18.01;100.00
34482;BME280;20720;48.886;9.388;2023-03-24T12:12:55;97520.53;;;17.86;100.00
34482;BME280;20720;48.886;9.388;2023-03-24T12:22:57;97534.91;;;17.91;100.00
34482;BME280;20720;48.886;9.388;2023-03-24T12:38:58;97525.31;;;18.40;99.74
34482;BME280;20720;48.886;9.388;2023-03-24T12:44:00;97539.38;;;17.70;100.00
34482;BME280;20720;48.886;9.388;2023-03-24T12:46:49;97536.78;;;17.90;100.00
34482;BME280;20720;48.886;9.388;2023-03-24T12:49:25;97534.38;;;17.83;99.47
34482;BME280;20720;48.886;9.388;2023-03-24T12:52:18;97535.44;;;17.82;98.16
34482;BME280;20720;48.886;9.388;2023-03-24T12:57:11;97547.53;;;17.43;99.10
34482;BME280;20720;48.886;9.388;2023-03-24T12:59:39;97548.59;;;17.37;100.00
34482;BME280;20720;48.886;9.388;2023-03-24T13:02:15;97541.03;;;17.09;100.00
34482;BME280;20720;48.886;9.388;2023-03-24T13:04:45;97534.22;;;17.23;100.00
34482;BME280;20720;48.886;9.388;2023-03-24T13:07:12;97526.72;;;17.10;100.00
34482;BME280;20720;48.886;9.388;2023-03-24T13:12:33;97512.84;;;17.80;99.51
34482;BME280;20720;48.886;9.388;2023-03-24T13:17:37;97511.47;;;17.62;98.98
34482;BME280;20720;48.886;9.388;2023-03-24T13:20:05;97505.91;;;17.59;98.99
34482;BME280;20720;48.886;9.388;2023-03-24T13:22:32;97518.31;;;17.38;100.00
34482;BME280;20720;48.886;9.388;2023-03-24T13:24:57;97508.22;;;17.45;100.00
34482;BME280;20720;48.886;9.388;2023-03-24T13:27:24;97518.41;;;17.88;99.89
34482;BME280;20720;48.886;9.388;2023-03-24T13:32:40;97549.47;;;16.96;100.00
34482;BME280;20720;48.886;9.388;2023-03-24T13:37:37;97564.47;;;16.34;100.00
34482;BME280;20720;48.886;9.388;2023-03-24T13:40:17;97562.50;;;16.19;100.00
34482;BME280;20720;48.886;9.388;2023-03-24T13:42:47;97565.66;;;15.84;100.00
34482;BME280;20720;48.886;9.388;2023-03-24T13:47:49;97564.66;;;15.64;100.00
34482;BME280;20720;48.886;9.388;2023-03-24T13:50:14;97553.19;;;15.10;100.00
34482;BME280;20720;48.886;9.388;2023-03-24T13:52:44;97563.56;;;15.38;100.00
34482;BME280;20720;48.886;9.388;2023-03-24T13:55:21;97560.56;;;15.08;100.00
34482;BME280;20720;48.886;9.388;2023-03-24T13:58:00;97559.94;;;15.01;100.00
34482;BME280;20720;48.886;9.388;2023-03-24T14:00:32;97559.59;;;14.21;100.00
34482;BME280;20720;48.886;9.388;2023-03-24T14:05:39;97550.47;;;14.67;100.00
34482;BME280;20720;48.886;9.388;2023-03-24T14:10:37;97545.97;;;14.29;100.00
34482;BME280;20720;48.886;9.388;2023-03-24T14:15:44;97559.38;;;14.77;100.00
34482;BME280;20720;48.886;9.388;2023-03-24T14:18:14;97550.63;;;14.55;100.00
34482;BME280;20720;48.886;9.388;2023-03-24T14:28:44;97548.66;;;14.17;100.00
34482;BME280;20720;48.886;9.388;2023-03-24T14:36:27;97535.03;;;13.31;100.00
34482;BME280;20720;48.886;9.388;2023-03-24T14:38:54;97531.38;;;13.93;100.00
34482;BME280;20720;48.886;9.388;2023-03-24T14:41:27;97530.44;;;13.99;100.00
34482;BME280;20720;48.886;9.388;2023-03-24T14:43:54;97527.41;;;14.07;100.00
34482;BME280;20720;48.886;9.388;2023-03-24T14:48:54;97515.84;;;14.47;100.00
34482;BME280;20720;48.886;9.388;2023-03-24T14:54:00;97503.63;;;13.91;100.00
34482;BME280;20720;48.886;9.388;2023-03-24T14:56:26;97516.44;;;13.82;100.00
34482;BME280;20720;48.886;9.388;2023-03-24T14:58:54;97518.56;;;13.69;100.00
34482;BME280;20720;48.886;9.388;2023-03-24T15:01:24;97515.28;;;13.62;100.00
34482;BME280;20720;48.886;9.388;2023-03-24T15:03:54;97528.22;;;13.18;100.00
34482;BME280;20720;48.886;9.388;2023-03-24T15:06:21;97522.75;;;12.97;100.00
34482;BME280;20720;48.886;9.388;2023-03-24T15:08:51;97519.97;;;13.43;100.00
34482;BME280;20720;48.886;9.388;2023-03-24T15:11:27;97524.94;;;13.00;100.00
34482;BME280;20720;48.886;9.388;2023-03-24T15:13:57;97527.22;;;12.96;100.00
34482;BME280;20720;48.886;9.388;2023-03-24T15:16:27;97531.31;;;13.44;100.00